• Join FlightAware (Why Join?)
  • Login
  • US Flag 
02:58AM EDT


 

Airport Tracker/Info


-or-


 

Live Flight TrackerFlight Track Log ✈ UPS1337 ✈ 14-Apr-2014 ✈ KPIE - KSDF

Flight Track Log - Related Links

Times and Time Zones

All times are in EDT time to prevent confusion due to time zone crossing. See the UPS1337 flight status page for this flight to view local times or setup timezone preferences in your user account.

Time Position Orientation Groundspeed Altitude Reporting Facility
EDT Latitude Longitude Course Direction KTS MPH feet Rate Location/Type
09:44PM 27.9000 -82.6833 180° South 160 184 900  Level Tampa TRACON
09:44PM 27.8667 -82.6833 180° South 155 178 2,500 2,280 Climbing Tampa TRACON
09:45PM 27.8333 -82.6833 180° South 206 237 4,400 2,520 Climbing Tampa TRACON
09:47PM 27.9203 -82.7658 320° Northwest 265 305 9,600 2,580 Climbing Jacksonville Center
09:48PM 28.0081 -82.7869 348° North 280 322 11,600 2,040 Climbing Jacksonville Center
09:49PM 28.1164 -82.8150 347° North 379 436 13,700 2,400 Climbing Jacksonville Center
09:50PM 28.2292 -82.8431 348° North 387 445 16,400 2,880 Climbing Jacksonville Center
09:51PM 28.3481 -82.8667 350° North 413 475 19,500 2,580 Climbing Jacksonville Center
09:52PM 28.4714 -82.8856 352° North 432 497 21,600 2,100 Climbing Jacksonville Center
09:53PM 28.5964 -82.9114 350° North 443 510 23,800 2,100 Climbing Jacksonville Center
09:54PM 28.7133 -82.9542 342° North 443 510 25,900 1,860 Climbing Jacksonville Center
09:55PM 28.8386 -82.9969 343° North 458 527 27,600 1,680 Climbing Jacksonville Center
09:56PM 28.9367 -83.0325 342° North 458 527 29,300 1,800 Climbing Jacksonville Center
09:57PM 29.0722 -83.0803 343° North 458 527 31,200 1,320 Climbing Jacksonville Center
09:58PM 29.1911 -83.1233 342° North 458 527 32,000 360 Climbing Jacksonville Center
09:59PM 29.3122 -83.1642 344° North 458 527 32,000  Level Jacksonville Center
10:00PM 29.4331 -83.2097 342° North 453 521 32,000  Level Jacksonville Center
10:01PM 29.5500 -83.2483 344° North 453 521 32,000  Level Jacksonville Center
10:02PM 29.6708 -83.2917 343° North 453 521 32,000  Level Jacksonville Center
10:03PM 29.7897 -83.3328 343° North 447 514 32,000  Level Jacksonville Center
10:04PM 29.9064 -83.3742 343° North 441 507 32,000 780 Level Jacksonville Center
10:05PM 30.0253 -83.4181 342° North 441 507 33,600 960 Climbing Jacksonville Center
10:06PM 30.1483 -83.4619 343° North 441 507 34,000 180 Climbing Jacksonville Center
10:07PM 30.2672 -83.5033 343° North 446 513 34,000  Level Jacksonville Center
10:08PM 30.3942 -83.5453 344° North 436 502 34,000  Level Jacksonville Center
10:09PM 30.5153 -83.5894 343° North 441 507 34,000  Level Jacksonville Center
10:10PM 30.6361 -83.6361 342° North 447 514 34,000  Level Jacksonville Center
10:11PM 30.7611 -83.6783 344° North 452 520 34,000  Level Jacksonville Center
10:12PM 30.8672 -83.7178 342° North 452 520 34,000  Level Jacksonville Center
10:13PM 30.9881 -83.7625 342° North 452 520 34,000  Level Jacksonville Center
10:14PM 31.1089 -83.8072 342° North 452 520 34,000  Level Jacksonville Center
10:15PM 31.2297 -83.8522 342° North 452 520 34,000  Level Jacksonville Center
10:16PM 31.3939 -83.9125 343° North 452 520 34,000  Level Atlanta Center
10:17PM 31.5150 -83.9586 342° North 452 520 34,000  Level Atlanta Center
10:18PM 31.6403 -83.9875 349° North 452 520 34,000  Level Atlanta Center
10:19PM 31.7694 -84.0169 349° North 457 526 34,000  Level Atlanta Center
10:20PM 31.9072 -84.0461 350° North 462 532 34,000  Level Atlanta Center
10:21PM 32.0367 -84.0756 349° North 462 532 34,000  Level Atlanta Center
10:22PM 32.1642 -84.1025 350° North 467 537 34,000  Level Atlanta Center
10:23PM 32.2892 -84.1297 350° North 467 537 34,000  Level Atlanta Center
10:24PM 32.4186 -84.1619 348° North 467 537 34,000  Level Atlanta Center
10:25PM 32.5458 -84.1867 351° North 467 537 34,000  Level Atlanta Center
10:26PM 32.6775 -84.2189 348° North 467 537 34,000  Level Atlanta Center
10:27PM 32.8067 -84.2489 349° North 467 537 34,000  Level Atlanta Center
10:28PM 32.9361 -84.2789 349° North 467 537 34,000  Level Atlanta Center
10:29PM 33.0550 -84.3064 349° North 474 545 34,000  Level Atlanta Center
10:30PM 33.1844 -84.3367 349° North 474 545 34,000  Level Atlanta Center
10:36PM 33.9945 -84.5240 349° North 492 566 34,000  Level FlightAware ADS-B (KDZJ)
10:37PM 34.0855 -84.5460 348° North 491 565 34,000  Level FlightAware ADS-B (KDZJ)
10:38PM 34.1762 -84.5655 353° North 501 577 34,000 60 Level FlightAware ADS-B (KDZJ)
10:38PM 34.2715 -84.5761 355° North 504 580 34,100  Climbing FlightAware ADS-B (KDZJ)
10:39PM 34.3648 -84.5861 355° North 513 590 34,000 -120 Descending FlightAware ADS-B (KDZJ)
10:40PM 34.4607 -84.5963 355° North 502 578 34,000  Level FlightAware ADS-B (KDZJ)
10:40PM 34.5534 -84.6063 355° North 502 578 34,000  Level FlightAware ADS-B (KDZJ)
10:41PM 34.6484 -84.6167 355° North 503 579 34,000  Level FlightAware ADS-B (KDZJ)
10:42PM 34.7421 -84.6267 355° North 503 579 34,000 60 Level FlightAware ADS-B (KDZJ)
10:42PM 34.8379 -84.6371 355° North 513 590 34,100  Climbing FlightAware ADS-B (KDZJ)
10:43PM 34.9320 -84.6474 355° North 515 593 34,000 -120 Descending FlightAware ADS-B (KDZJ)
10:44PM 35.0263 -84.6576 355° North 516 594 34,000  Level FlightAware ADS-B (KDZJ)
10:44PM 35.1182 -84.6677 355° North 516 594 34,000  Level FlightAware ADS-B (KDZJ)
10:45PM 35.2165 -84.6784 355° North 520 598 34,000  Level FlightAware ADS-B (KDZJ)
10:45PM 35.2783 -84.6875 355° North 509 586 34,000  Level Atlanta Center
10:46PM 35.4203 -84.7014 355° North 509 586 34,000  Level Atlanta Center
10:47PM 35.5642 -84.7178 355° North 514 592 34,000 -840 Level Atlanta Center
10:56PM 36.8319 -84.8624 355° North 493 567 25,900 -1,080 Descending FlightAware ADS-B (KBRY)
10:57PM 36.9210 -84.8723 355° North 478 550 24,000 -2,820 Descending FlightAware ADS-B (KBRY)
10:58PM 37.0461 -84.8855 355° North 466 536 20,700 -2,700 Descending FlightAware ADS-B (KBRY)
11:01PM 37.3831 -84.9223 355° North 435 501 14,700 -2,460 Descending FlightAware ADS-B (KBRY)
11:01PM 37.4124 -84.9256 355° North 428 493 13,400 -1,260 Descending FlightAware ADS-B (KBRY)
11:04PM 37.6927 -85.0047 312° West 298 343 10,800 -1,320 Descending FlightAware ADS-B (KBRY)
11:05PM 37.7606 -85.1000 312° West 278 320 8,400 -1,200 Descending FlightAware ADS-B (KBRY)
11:06PM 37.8250 -85.1888 312° West 285 328 7,900 -660 Descending FlightAware ADS-B (KBRY)
11:08PM 37.8645 -85.2975 291° West 271 312 6,800 -960 Descending FlightAware ADS-B (KBRY)
11:09PM 37.8971 -85.4082 289° West 280 322 5,600 -960 Descending FlightAware ADS-B (KBRY)
11:10PM 37.9219 -85.4878 292° West 249 287 4,700 -1,080 Descending FlightAware ADS-B (KBRY)
11:11PM 37.9476 -85.5757 290° West 248 285 3,500 -840 Descending FlightAware ADS-B (KBRY)
11:12PM 37.9762 -85.6495 317° Northwest 212 244 3,100 -240 Descending FlightAware ADS-B (KBRY)
11:13PM 38.0268 -85.6772 345° North 192 221 3,100 -420 Level FlightAware ADS-B (KBRY)
11:14PM 38.0814 -85.6952 345° North 158 182 2,300 -720 Descending FlightAware ADS-B (KBRY)
11:15PM 38.1225 -85.7094 345° North 119 137 1,500 -780 Descending FlightAware ADS-B (KBRY)
11:16PM 38.1247 -85.7101 345° North 118 136 1,100 -1,200 Descending FlightAware ADS-B (KBRY)
11:23PM 38.1667 -85.7333 208° Southwest  Level FlightAware Approximate
11:24PM 38.1741 -85.7365 208° Southwest  Level Estimated